Latest Coastal Weather Observations for Wyndham Airport

IDW60701

Issued at 12:33 pm WST Thursday 19 January 2017 (issued every 10 minutes, with the page automatically refreshed every 10 minutes)

About coastal observations | Map of coastal stations | Coastal observations for WA | Marine services | Other Formats
Station Details ID: 001006 Name: WYNDHAM AERO Lat: -15.51 Lon: 128.15 Height: 3.8 m
Data from the previous 72 hours. | See also: Recent months at Wyndham Airport
Date/Time
WST
Temp
°C
Wind Pressure Rain since
9am
mm
Weather Cloud Vis
km
Sea
Height
m
Swell
Dir  Spd
kts
Gust
kts
hPa Trend Height
m
Period
s
Dir
19/12:30pm 33.0 NW 10 15 1006.3 - 0.0 - - - - - - -
19/12:00pm 31.9 W 5 8 1006.8 - 0.0 - - - - - - -
19/11:30am 32.3 WNW 7 12 1007.2 - 0.0 - - - - - - -
19/11:00am 31.5 WNW 7 10 1007.7 - 0.0 - - - - - - -
19/10:30am 31.0 W 5 10 1008.2 - 0.0 - - - - - - -
19/10:00am 30.4 NW 5 7 1008.7 - 0.0 - - - - - - -
19/09:30am 30.3 W 5 7 1009.1 - 0.0 - - - - - - -
19/09:00am 29.7 NW 7 10 1009.5 - 10.8 - - - - - - -
19/08:30am 29.3 NW 7 9 1009.8 - 10.8 - - - - - - -
19/08:00am 28.7 NW 7 9 1010.1 - 10.8 - - - - - - -
19/07:30am 28.3 NW 4 8 1009.9 - 10.8 - - - - - - -
19/07:00am 27.6 CALM 0 0 1009.5 - 10.8 - - - - - - -
19/06:30am 26.8 CALM 0 0 1009.2 - 10.8 - - - - - - -
19/06:00am 26.2 CALM 0 0 1009.2 - 10.8 - - - - - - -
19/05:30am 25.9 CALM 0 0 1008.8 - 10.8 - - - - - - -
19/05:00am 25.8 CALM 0 0 1008.5 - 10.8 - - - - - - -
19/04:30am 25.8 ENE 2 3 1008.3 - 10.8 - - - - - - -
19/04:00am 25.8 E 4 5 1008.1 - 10.8 - - - - - - -
19/03:30am 25.9 E 6 7 1007.7 - 10.8 - - - - - - -
19/03:00am 25.7 E 6 7 1007.8 - 10.8 - - - - - - -
19/02:30am 25.8 E 5 6 1008.1 - 10.8 - - - - - - -
19/02:00am 25.9 E 6 8 1008.4 - 10.8 - - - - - - -
19/01:30am 25.7 E 6 8 1008.5 - 10.8 - - - - - - -
19/01:00am 25.6 E 10 12 1008.2 - 10.8 - - - - - - -
19/12:30am 25.6 E 11 13 1008.6 - 10.8 - - - - - - -
19/12:00am 25.7 E 11 14 1009.1 - 10.8 Rain - - - - - -
 
Date/Time
WST
Temp
°C
Wind Pressure Rain since
9am
mm
Weather Cloud Vis
km
Sea
Height
m
Swell
Dir  Spd
kts
Gust
kts
hPa Trend Height
m
Period
s
Dir
18/11:30pm 25.8 E 10 13 1008.9 - 10.6 - - - - - - -
18/11:00pm 25.8 E 10 13 1009.0 - 10.6 - - - - - - -
18/10:30pm 25.8 ESE 10 12 1008.9 - 10.6 - - - - - - -
18/10:00pm 25.8 ESE 11 13 1008.8 - 10.6 - - - - - - -
18/09:30pm 25.8 ESE 11 14 1008.9 - 10.6 - - - - - - -
18/09:00pm 26.0 E 11 13 1009.0 - 10.6 Recent precip. - - - - - -
18/08:30pm 26.1 ESE 10 13 1009.1 - 10.4 - - - - - - -
18/08:00pm 26.5 E 9 12 1008.8 - 10.2 - - - - - - -
18/07:30pm 27.2 ESE 6 10 1008.3 - 10.0 - - - - - - -
18/07:00pm 26.7 E 6 10 1007.2 - 10.0 - - - - - - -
18/06:30pm 26.6 E 9 11 1006.8 - 10.0 - - - - - - -
18/06:00pm 26.5 E 8 11 1006.2 - 10.0 Rain - - - - - -
18/05:30pm 27.0 ESE 5 8 1006.4 - 9.2 - - - - - - -
18/05:00pm 28.2 NE 6 9 1005.7 - 9.0 - - - - - - -
18/04:30pm 29.0 ENE 5 8 1005.2 - 9.0 - - - - - - -
18/04:00pm 28.8 NNE 9 11 1004.8 - 9.0 - - - - - - -
18/03:30pm 28.1 N 12 17 1004.3 - 8.6 - - - - - - -
18/03:00pm 30.1 W 4 6 1004.6 - 7.8 Recent precip. - - - - - -
18/02:30pm 28.9 WSW 17 29 1004.8 - 0.8 - - - - - - -
18/02:29pm 29.4 WSW 15 29 1004.9 - 0.4 - - - - - - -
18/02:00pm 33.6 NNW 11 15 1004.6 - 0.0 - - - - - - -
18/01:30pm 33.4 SW 5 8 1004.9 - 0.0 - - - - - - -
18/01:00pm 33.4 NW 9 19 1005.5 - 0.0 - - - - - - -
18/12:30pm 33.6 NW 8 14 1006.0 - 0.0 - - - - - - -
18/12:00pm 33.7 NW 7 13 1006.3 - 0.0 - - - - - - -
18/11:30am 32.7 NW 8 13 1006.9 - 0.0 - - - - - - -
18/11:00am 32.4 NW 6 10 1007.3 - 0.0 - - - - - - -
18/10:30am 32.0 NW 7 11 1007.8 - 0.0 - - - - - - -
18/10:00am 31.2 WNW 2 5 1008.4 - 0.0 - - - - - - -
18/09:30am 30.5 NW 3 6 1008.7 - 0.0 - - - - - - -
18/09:00am 29.9 WNW 4 7 1009.0 - 9.2 - - - - - - -
18/08:30am 29.0 WNW 1 6 1009.0 - 9.2 - - - - - - -
18/08:00am 28.2 CALM 0 0 1008.9 - 9.2 - - - - - - -
18/07:30am 27.7 SSW 1 4 1008.7 - 9.2 - - - - - - -
18/07:00am 27.1 SE 4 5 1008.7 - 9.2 - - - - - - -
18/06:30am 26.5 ESE 5 6 1008.5 - 9.2 - - - - - - -
18/06:00am 25.9 ESE 7 9 1008.4 - 9.2 Recent precip. - - - - - -
18/05:30am 25.7 ESE 9 11 1008.4 - 9.2 - - - - - - -
18/05:00am 25.7 ESE 8 9 1008.1 - 9.0 - - - - - - -
18/04:30am 25.7 E 8 10 1007.7 - 9.0 - - - - - - -
18/04:00am 25.7 ESE 8 11 1007.3 - 9.0 - - - - - - -
18/03:30am 25.8 ESE 7 9 1007.2 - 9.0 - - - - - - -
18/03:00am 25.6 E 2 6 1006.9 - 9.0 - - - - - - -
18/02:30am 25.6 CALM 0 0 1007.1 - 9.0 - - - - - - -
18/02:00am 25.6 ESE 5 7 1007.0 - 9.0 - - - - - - -
18/01:30am 25.2 E 4 5 1007.1 - 8.8 - - - - - - -
18/01:00am 25.2 E 5 6 1007.2 - 8.8 - - - - - - -
18/12:30am 25.2 E 5 6 1007.5 - 8.8 - - - - - - -
18/12:00am 25.2 E 6 7 1007.8 - 8.8 - - - - - - -
 
Date/Time
WST
Temp
°C
Wind Pressure Rain since
9am
mm
Weather Cloud Vis
km
Sea
Height
m
Swell
Dir  Spd
kts
Gust
kts
hPa Trend Height
m
Period
s
Dir
17/11:30pm 25.1 E 6 7 1007.9 - 8.8 - - - - - - -
17/11:00pm 25.1 E 6 7 1008.2 - 8.8 - - - - - - -
17/10:30pm 25.5 E 6 7 1008.7 - 8.8 - - - - - - -
17/10:00pm 25.6 SE 6 8 1009.1 - 8.8 - - - - - - -
17/09:30pm 25.4 ESE 7 9 1009.1 - 8.4 - - - - - - -
17/09:00pm 25.1 NE 7 9 1009.4 - 7.2 Rain - - - - - -
17/08:30pm 26.0 SSE 4 7 1008.9 - 1.6 - - - - - - -
17/08:00pm 25.9 SSW 3 5 1008.4 - 1.2 - - - - - - -
17/07:30pm 25.8 S 6 9 1008.1 - 1.2 - - - - - - -
17/07:00pm 25.8 SSW 10 13 1007.6 - 1.2 - - - - - - -
17/06:30pm 25.9 SW 22 30 1007.1 - 1.2 - - - - - - -
17/06:28pm 26.0 SW 23 30 1006.9 - 1.2 - - - - - - -
17/06:19pm 26.1 WSW 21 29 1006.2 - 0.2 - - - - - - -
17/06:00pm 27.4 W 13 19 1005.9 - 0.0 - - - - - - -
17/05:30pm 30.9 N 15 20 1005.0 - 0.0 - - - - - - -
17/05:00pm 31.1 N 13 19 1004.5 - 0.0 - - - - - - -
17/04:30pm 31.1 N 13 19 1003.8 - 0.0 - - - - - - -
17/04:00pm 31.8 N 14 19 1003.5 - 0.0 - - - - - - -
17/03:30pm 32.5 NNE 15 19 1003.2 - 0.0 - - - - - - -
17/03:00pm 33.2 N 12 19 1003.3 - 0.0 - - - - - - -
17/02:30pm 34.4 N 9 14 1003.5 - 0.0 - - - - - - -
17/02:00pm 34.4 NW 8 12 1003.9 - 0.0 - - - - - - -
17/01:30pm 34.2 NW 8 11 1004.4 - 0.0 - - - - - - -
17/01:00pm 33.9 WNW 4 8 1004.7 - 0.0 - - - - - - -
17/12:30pm 33.2 W 4 8 1005.6 - 0.0 - - - - - - -
17/12:00pm 32.9 W 7 10 1006.2 - 0.0 - - - - - - -
17/11:30am 32.5 WNW 3 7 1006.7 - 0.0 - - - - - - -
17/11:00am 31.7 SW 2 6 1006.9 - 0.0 - - - - - - -
17/10:30am 30.8 SSE 2 4 1007.2 - 0.0 - - - - - - -
17/10:00am 30.2 CALM 0 0 1007.5 - 0.0 - - - - - - -
17/09:30am 29.6 CALM 0 0 1007.7 - 0.0 - - - - - - -
17/09:00am 29.2 WNW 5 7 1007.8 - 28.8 - - - - - - -
17/08:30am 28.5 NW 2 5 1007.8 - 28.8 - - - - - - -
17/08:00am 27.9 CALM 0 2 1007.9 - 28.8 - - - - - - -
17/07:30am 26.9 SW 3 4 1007.7 - 28.8 - - - - - - -
17/07:00am 26.2 SSW 5 6 1007.5 - 28.8 - - - - - - -
17/06:30am 25.7 NW 3 4 1007.4 - 28.8 - - - - - - -
17/06:00am 25.2 CALM 0 0 1007.1 - 28.8 Recent precip. - - - - - -
17/05:30am 24.7 NNW 4 5 1006.9 - 28.8 - - - - - - -
17/05:00am 24.6 NNE 4 4 1006.9 - 28.6 - - - - - - -
17/04:30am 24.7 NW 3 5 1006.9 - 28.6 - - - - - - -
17/04:00am 24.8 WNW 5 6 1006.6 - 28.6 - - - - - - -
17/03:30am 24.3 NNW 4 6 1006.2 - 28.2 - - - - - - -
17/03:00am 24.2 NNW 1 4 1005.8 - 27.8 Rain - - - - - -
17/02:30am 23.9 NNW 3 5 1006.1 - 26.6 - - - - - - -
17/02:00am 24.2 NW 14 17 1006.3 - 24.4 - - - - - - -
17/01:30am 25.0 NW 6 9 1006.4 - 18.4 - - - - - - -
17/01:00am 25.5 W 7 12 1006.8 - 7.8 - - - - - - -
17/12:30am 25.3 NW 6 8 1006.8 - 6.6 - - - - - - -
17/12:00am 25.4 NW 6 7 1006.3 - 6.6 - - - - - - -
 
Date/Time
WST
Temp
°C
Wind Pressure Rain since
9am
mm
Weather Cloud Vis
km
Sea
Height
m
Swell
Dir  Spd
kts
Gust
kts
hPa Trend Height
m
Period
s
Dir
16/11:30pm 25.5 CALM 0 3 1006.3 - 6.6 - - - - - - -
16/11:00pm 25.4 ENE 5 6 1006.9 - 6.6 - - - - - - -
16/10:30pm 25.5 E 5 6 1007.4 - 6.6 - - - - - - -
16/10:00pm 25.5 ESE 6 7 1007.8 - 6.6 - - - - - - -
16/09:30pm 25.1 ENE 6 7 1007.8 - 6.6 - - - - - - -
16/09:00pm 24.8 ENE 5 7 1008.0 - 6.6 Recent precip. - - - - - -
16/08:30pm 25.0 ENE 7 11 1007.1 - 6.2 - - - - - - -
16/08:00pm 25.3 NNE 7 11 1007.1 - 5.8 - - - - - - -
16/07:30pm 26.0 SSE 8 11 1007.8 - 3.0 - - - - - - -
16/07:00pm 25.7 ESE 10 13 1006.5 - 3.0 - - - - - - -
16/06:30pm 25.7 E 4 7 1006.4 - 3.0 - - - - - - -
16/06:00pm 25.5 NE 5 7 1006.3 - 3.0 Recent precip. - - - - - -
16/05:30pm 25.4 NNE 4 6 1005.5 - 3.0 - - - - - - -
16/05:00pm 25.7 NE 3 5 1005.3 - 2.2 - - - - - - -
16/04:30pm 26.1 NNE 6 8 1005.3 - 1.4 - - - - - - -
16/04:00pm 26.8 SSE 15 25 1005.1 - 0.8 - - - - - - -
16/03:55pm 27.7 NW 8 24 1005.0 - 0.6 - - - - - - -
16/03:30pm 31.5 CALM 0 0 1004.7 - 0.0 - - - - - - -
16/03:00pm 31.5 NNW 5 6 1004.5 - 0.0 - - - - - - -
16/02:30pm 32.1 NW 5 7 1004.6 - 0.0 - - - - - - -
16/02:00pm 33.2 NW 6 9 1004.7 - 0.0 - - - - - - -
16/01:30pm 32.4 WSW 3 7 1004.9 - 0.0 - - - - - - -
16/01:00pm 32.0 WNW 5 7 1005.3 - 0.0 - - - - - - -

Other Formats:

Comma delimited format used in spreadsheet applications
http://www.bom.gov.au/fwo/IDW60701/IDW60701.95214.axf

JavaScript Object Notation format (JSON) in row-major order
http://www.bom.gov.au/fwo/IDW60701/IDW60701.95214.json